Portada
METAR-TAF:

METAR-TAF

Aeroports :

Santee_Cooper_Regional_Airport

Manning, Carolina del Sud, Estats Units d'Amèrica

latitud: 33-35N, longitud: 080-13W, altitud: 32 m

Observació

L'informe es va fer fa 27 minuts, a les 05:35 UTC
Vent calma
Temperatura 25°C
Humitat 83%
Pressió 1019 hPa
Visibilitat: 16.1 km
Cel clar

METAR: KMNI 220535Z AUTO 00000KT 10SM CLR 25/22 A3008 RMK AO2

Hora: 02:02 (06:02 UTC)


TAF: manca

Observacions i pronòstics meteorològics de més de 4000 aeroports (METAR i TAF).

Les estacions disponibles són els punts grocs i vermells al mapa.

Posi el ratolí al punt desitjat per veure el nom de l'estació.

Feu clic per veure les observacions i els pronòstics meteorològics.

Per canviar el mapa: feu clic els botons verds amb una creu de color negre per apropar; al botó verd amb un guió per allunyar la imatge; o en les fletxes verdes per a mapes adjacents.


METAR-TAF: